Ingunn — PBBX — position and weather

sailwx.info

Track history (hours):
 
Tides and Currents Weather Stations Pressure Air Temp Water Temp Dewpoint Dewpoint Depression Visibility Wind Speed Wind Dir Waves Ship Positions

Ingunn

Last reported at 2017-Dec-18 16:09 UTC. Time now 2017-Dec-18 20:29 UTC.
Position N 35°59' W 005°14'.

Length 95 m; draft 6.3 m.

Type: Cargo ship. MMSI: 244921000.

Date/timePositionNaut miles runAvg speedWind from/ knotsBaromVisibWave heightAir tempDewpointWater temp
2017-Dec-18 16:09N 35°59' W 005°14'212.2
2017-Dec-18 16:01N 35°59' W 005°16'711.9
2017-Dec-18 15:27N 35°58' W 005°24'  
2017-Dec-10 06:45N 38°39' W 010°05'310.7
2017-Dec-10 06:30N 38°42' W 010°05'510.3
2017-Dec-10 06:00N 38°47' W 010°05'510.5
2017-Dec-10 05:30N 38°53' W 010°05'510.6
2017-Dec-10 05:00N 38°58' W 010°06'510.8
2017-Dec-10 04:30N 39°03' W 010°06'610.4
2017-Dec-10 03:56N 39°09' W 010°06'510.8
2017-Dec-10 03:28N 39°14' W 010°05'  
Track history (hours):
 
Tides and Currents Weather Stations Pressure Air Temp Water Temp Dewpoint Dewpoint Depression Visibility Wind Speed Wind Dir Waves Ship Positions

Ingunn

Last reported at 2017-Dec-18 16:09 UTC. Time now 2017-Dec-18 20:29 UTC.
Position N 35°59' W 005°14'.

Length 95 m; draft 6.3 m.

Type: Cargo ship. MMSI: 244921000.

Date/timePositionNaut miles runAvg speedWind from/ knotsBaromVisibWave heightAir tempDewpointWater temp
2017-Dec-18 16:09N 35°59' W 005°14'212.2
2017-Dec-18 16:01N 35°59' W 005°16'711.9
2017-Dec-18 15:27N 35°58' W 005°24'  
2017-Dec-10 06:45N 38°39' W 010°05'310.7
2017-Dec-10 06:30N 38°42' W 010°05'510.3
2017-Dec-10 06:00N 38°47' W 010°05'510.5
2017-Dec-10 05:30N 38°53' W 010°05'510.6
2017-Dec-10 05:00N 38°58' W 010°06'510.8
2017-Dec-10 04:30N 39°03' W 010°06'610.4
2017-Dec-10 03:56N 39°09' W 010°06'510.8
2017-Dec-10 03:28N 39°14' W 010°05'  

Dump ship's entire track history